ENML

Molde Airport

Årø, Norway
METAR ENML 182220Z AUTO 28005KT 9999NDV FEW062/// OVC076/// 12/04 Q0998
Observed Flight Rules
Jun-18 @ 22:20 UTC (21 minutes ago)
Wind Clouds
280° at 5 knots
  • Few at 6,200' AGL
  • Overcast at 7,600' AGL
Temperatures Readings
Current 12°C / 54°F
Dewpoint 4°C / 39°F
Humidity 58%
Altimeter 29.47" Hg
Pressure 998 hPa
Elevation 3
METAR ENML 182220Z AUTO 28005KT 9999NDV FEW062/// OVC076/// 12/04 Q0998
Observed Flight Rules
Jun-18 @ 22:20 UTC
(21 minutes ago)
Wind
280° at 5 knots
Clouds
  • Few at 6,200' AGL
  • Overcast at 7,600' AGL
Temperature Dewpoint
12°C / 54°F 4°C / 39°F
Humidity Altimeter Pressure
58% 29.47" Hg 998 hPa